createdAt,value
2022-11-30T00:01:19.816Z,46.40
2022-11-30T00:03:49.962Z,40.25
2022-11-30T00:06:23.446Z,45.42
2022-11-30T00:08:59.383Z,50.78
2022-11-30T00:11:30.990Z,54.53
2022-11-30T00:13:57.613Z,38.80
2022-11-30T00:16:26.895Z,40.33
2022-11-30T00:18:53.429Z,38.05
2022-11-30T00:21:20.000Z,38.78
2022-11-30T00:23:49.128Z,37.05
2022-11-30T00:26:19.265Z,36.33
2022-11-30T00:28:47.496Z,39.20
2022-11-30T00:31:16.204Z,47.20
2022-11-30T00:33:43.011Z,40.30
2022-11-30T00:36:18.398Z,39.00
2022-11-30T00:38:45.678Z,38.65
2022-11-30T00:41:12.693Z,40.33
2022-11-30T00:43:39.367Z,46.00
2022-11-30T00:46:06.588Z,43.97
2022-11-30T00:48:33.170Z,40.35
2022-11-30T00:50:59.738Z,39.15
2022-11-30T00:53:26.783Z,38.50
2022-11-30T00:55:56.942Z,42.75
2022-11-30T00:58:23.450Z,39.15
2022-11-30T01:00:50.167Z,40.67
2022-11-30T01:03:23.073Z,40.97
2022-11-30T01:05:49.585Z,49.00
2022-11-30T01:08:16.213Z,39.00
2022-11-30T01:10:44.409Z,37.90
2022-11-30T01:13:14.389Z,35.45
2022-11-30T01:15:43.952Z,35.35
2022-11-30T01:18:14.156Z,35.25
2022-11-30T01:20:44.804Z,36.10
2022-11-30T01:23:11.795Z,36.75
2022-11-30T01:25:38.881Z,33.97
2022-11-30T01:28:05.822Z,34.92
2022-11-30T01:30:32.555Z,38.45
2022-11-30T01:33:06.588Z,36.90
2022-11-30T01:35:33.089Z,42.15
2022-11-30T01:38:03.115Z,36.42
2022-11-30T01:40:29.635Z,36.53
2022-11-30T01:42:56.104Z,42.65
2022-11-30T01:45:22.760Z,36.88
2022-11-30T01:47:53.508Z,34.40
2022-11-30T01:50:30.659Z,34.65
2022-11-30T01:52:58.045Z,38.50
2022-11-30T01:55:27.671Z,38.42
2022-11-30T01:58:02.359Z,39.67
2022-11-30T02:00:29.196Z,34.47
2022-11-30T02:03:00.437Z,33.42
2022-11-30T02:05:27.580Z,41.92
2022-11-30T02:07:54.490Z,35.10
2022-11-30T02:10:30.130Z,39.17
2022-11-30T02:13:13.972Z,35.75
2022-11-30T02:15:55.711Z,40.17
2022-11-30T02:18:46.259Z,35.40
2022-11-30T02:21:38.368Z,36.15
2022-11-30T02:24:20.659Z,34.47
2022-11-30T02:26:47.139Z,42.70
2022-11-30T02:29:21.372Z,34.67
2022-11-30T02:31:50.868Z,45.75
2022-11-30T02:34:21.181Z,34.00
2022-11-30T02:36:48.500Z,44.97
2022-11-30T02:39:15.060Z,34.33
2022-11-30T02:41:44.059Z,35.40
2022-11-30T02:44:11.911Z,35.30
2022-11-30T02:46:53.007Z,35.92
2022-11-30T02:49:30.515Z,35.50
2022-11-30T02:51:58.542Z,35.95
2022-11-30T02:54:25.180Z,34.47
2022-11-30T02:56:52.026Z,37.45
2022-11-30T02:59:19.200Z,35.47
2022-11-30T03:01:45.728Z,37.83
2022-11-30T03:04:12.286Z,39.85
2022-11-30T03:06:38.759Z,42.88
2022-11-30T03:09:05.421Z,41.00
2022-11-30T03:11:35.278Z,41.35
2022-11-30T03:14:01.864Z,35.65
2022-11-30T03:16:31.542Z,35.40
2022-11-30T03:18:58.847Z,37.35
2022-11-30T03:21:25.744Z,46.72
2022-11-30T03:23:55.480Z,38.35
2022-11-30T03:26:22.106Z,38.63
2022-11-30T03:28:48.595Z,36.70
2022-11-30T03:31:15.217Z,36.25
2022-11-30T03:33:44.650Z,37.05
2022-11-30T03:36:12.357Z,36.17
2022-11-30T03:38:39.590Z,36.85
2022-11-30T03:41:12.711Z,37.03
2022-11-30T03:43:39.163Z,37.85
2022-11-30T03:46:06.331Z,39.35
2022-11-30T03:48:34.969Z,38.25
2022-11-30T03:51:02.402Z,38.30
2022-11-30T03:53:28.869Z,35.45
2022-11-30T03:55:59.883Z,42.17
2022-11-30T03:58:32.749Z,40.08
2022-11-30T04:01:03.339Z,43.95
2022-11-30T04:03:30.687Z,39.70
2022-11-30T04:05:58.493Z,37.08
2022-11-30T04:08:28.069Z,38.45
2022-11-30T04:10:56.390Z,47.72
2022-11-30T04:13:23.907Z,44.05
2022-11-30T04:15:54.421Z,42.03
2022-11-30T04:18:24.044Z,47.40
2022-11-30T04:20:52.371Z,36.05
2022-11-30T04:23:19.337Z,40.88
2022-11-30T04:25:47.929Z,47.15
2022-11-30T04:28:20.223Z,43.38
2022-11-30T04:30:47.314Z,42.88
2022-11-30T04:33:15.758Z,42.83
2022-11-30T04:35:48.373Z,37.50
2022-11-30T04:38:14.877Z,38.03
2022-11-30T04:40:42.917Z,40.20
2022-11-30T04:43:10.087Z,38.83
2022-11-30T04:45:36.978Z,38.03
2022-11-30T04:48:06.034Z,38.28
2022-11-30T04:50:32.691Z,35.55
2022-11-30T04:52:59.385Z,42.03
2022-11-30T04:55:26.332Z,46.78
2022-11-30T04:57:53.262Z,40.30
2022-11-30T05:00:20.468Z,36.80
2022-11-30T05:02:52.523Z,41.38
2022-11-30T05:05:19.668Z,37.53
2022-11-30T05:07:50.881Z,38.42
2022-11-30T05:10:20.267Z,42.03
2022-11-30T05:12:46.745Z,37.65
2022-11-30T05:15:13.209Z,37.55
2022-11-30T05:17:39.757Z,37.78
2022-11-30T05:20:10.250Z,48.30
2022-11-30T05:22:39.605Z,42.58
2022-11-30T05:25:07.100Z,39.70
2022-11-30T05:27:33.737Z,38.47
2022-11-30T05:30:00.225Z,40.67
2022-11-30T05:32:26.881Z,39.75
2022-11-30T05:34:53.974Z,39.88
2022-11-30T05:37:26.224Z,47.65
2022-11-30T05:39:52.732Z,36.08
2022-11-30T05:42:22.609Z,38.97
2022-11-30T05:44:51.179Z,34.90
2022-11-30T05:47:17.988Z,41.15
2022-11-30T05:49:44.762Z,49.55
2022-11-30T05:52:11.515Z,39.28
2022-11-30T05:54:39.491Z,38.75
2022-11-30T05:57:05.959Z,39.80
2022-11-30T05:59:32.609Z,38.85
2022-11-30T06:01:59.226Z,41.97
2022-11-30T06:04:25.960Z,39.65
2022-11-30T06:06:55.502Z,38.78
2022-11-30T06:09:22.679Z,38.30
2022-11-30T06:11:49.183Z,39.92
2022-11-30T06:14:15.661Z,41.35
2022-11-30T06:16:42.186Z,43.08
2022-11-30T06:19:08.769Z,36.10
2022-11-30T06:21:35.242Z,35.50
2022-11-30T06:24:03.469Z,36.92
2022-11-30T06:26:30.057Z,39.08
2022-11-30T06:28:56.522Z,37.97
2022-11-30T06:31:23.103Z,37.05
2022-11-30T06:33:49.692Z,36.33
2022-11-30T06:36:22.378Z,36.90
2022-11-30T06:38:49.029Z,35.50
2022-11-30T06:41:15.633Z,52.05
2022-11-30T06:43:45.234Z,42.15
2022-11-30T06:46:11.809Z,36.15
2022-11-30T06:48:39.011Z,37.50
2022-11-30T06:51:07.353Z,36.03
2022-11-30T06:53:34.466Z,34.75
2022-11-30T06:56:10.364Z,37.90
2022-11-30T06:58:39.142Z,41.15
2022-11-30T07:01:07.956Z,35.65
2022-11-30T07:03:36.562Z,35.85
2022-11-30T07:06:08.082Z,35.00
2022-11-30T07:08:34.784Z,33.58
2022-11-30T07:11:01.319Z,33.53
2022-11-30T07:13:29.751Z,30.55
2022-11-30T07:15:58.959Z,31.83
2022-11-30T07:18:31.455Z,39.40
2022-11-30T07:21:00.725Z,34.40
2022-11-30T07:23:49.489Z,34.50
2022-11-30T07:26:19.966Z,32.90
2022-11-30T07:28:49.818Z,37.25
2022-11-30T07:31:18.818Z,32.75
2022-11-30T07:33:46.543Z,32.40
2022-11-30T07:36:13.413Z,32.90
2022-11-30T07:38:42.968Z,36.38
2022-11-30T07:41:09.796Z,32.88
2022-11-30T07:43:36.297Z,33.38
2022-11-30T07:46:03.841Z,34.20
2022-11-30T07:48:30.556Z,32.13
2022-11-30T07:51:10.095Z,37.92
2022-11-30T07:53:39.327Z,34.00
2022-11-30T07:56:08.989Z,34.75
2022-11-30T07:58:35.781Z,35.85
2022-11-30T08:01:07.665Z,32.78
2022-11-30T08:06:07.339Z,33.88
2022-11-30T08:08:36.534Z,34.10
2022-11-30T08:11:04.570Z,36.67
2022-11-30T08:13:31.303Z,36.03
2022-11-30T08:16:20.970Z,33.95
2022-11-30T08:18:47.802Z,34.67
2022-11-30T08:21:16.837Z,35.58
2022-11-30T08:23:45.966Z,33.80
2022-11-30T08:26:20.576Z,43.33
2022-11-30T08:28:49.095Z,34.55
2022-11-30T08:31:19.164Z,35.47
2022-11-30T08:33:46.269Z,35.25
2022-11-30T08:36:13.746Z,32.80
2022-11-30T08:38:42.155Z,34.60
2022-11-30T08:41:10.315Z,32.85
2022-11-30T08:43:36.828Z,31.73
2022-11-30T08:46:27.522Z,32.63
2022-11-30T08:49:07.357Z,34.40
2022-11-30T08:52:14.701Z,32.20
2022-11-30T08:54:27.416Z,32.85
2022-11-30T08:56:56.908Z,32.72
2022-11-30T08:59:23.403Z,33.78
2022-11-30T09:01:49.879Z,30.88
2022-11-30T09:04:19.490Z,33.13
2022-11-30T09:06:46.023Z,29.08
2022-11-30T09:09:12.547Z,33.38
2022-11-30T09:11:39.078Z,32.63
2022-11-30T09:14:06.658Z,32.03
2022-11-30T09:16:33.726Z,30.15
2022-11-30T09:19:03.041Z,33.75
2022-11-30T09:21:29.681Z,32.88
2022-11-30T09:23:56.711Z,31.75
2022-11-30T09:26:25.219Z,30.27
2022-11-30T09:28:53.361Z,32.22
2022-11-30T09:31:27.625Z,32.65
2022-11-30T09:33:58.866Z,30.90
2022-11-30T09:36:27.288Z,30.52
2022-11-30T09:38:55.126Z,33.63
2022-11-30T09:41:24.212Z,30.30
2022-11-30T09:43:56.476Z,32.45
2022-11-30T09:46:39.819Z,32.70
2022-11-30T09:49:14.144Z,32.17
2022-11-30T09:51:54.607Z,33.17
2022-11-30T09:54:39.710Z,33.70
2022-11-30T09:57:18.374Z,31.08
2022-11-30T09:59:54.143Z,32.25
2022-11-30T10:02:22.463Z,31.85
2022-11-30T10:04:49.740Z,33.05
2022-11-30T10:07:40.492Z,31.98
2022-11-30T10:10:33.000Z,32.33
2022-11-30T10:13:12.395Z,32.78
2022-11-30T10:16:04.535Z,30.27
2022-11-30T10:19:07.738Z,35.83
2022-11-30T10:22:05.199Z,32.17
2022-11-30T10:25:12.015Z,32.17
2022-11-30T10:28:12.682Z,32.83
2022-11-30T10:30:48.979Z,29.55
2022-11-30T10:33:22.576Z,33.20
2022-11-30T10:35:56.350Z,32.05
2022-11-30T10:38:33.810Z,31.27
2022-11-30T10:41:31.147Z,33.47
2022-11-30T10:44:04.961Z,30.55
2022-11-30T10:46:36.536Z,29.10
2022-11-30T10:49:25.707Z,31.17
2022-11-30T10:51:57.012Z,31.45
2022-11-30T10:54:23.786Z,32.22
2022-11-30T10:56:50.464Z,30.02
2022-11-30T10:59:26.027Z,32.80
2022-11-30T11:01:53.488Z,32.60
2022-11-30T11:04:27.869Z,32.03
2022-11-30T11:07:15.469Z,32.08
2022-11-30T11:09:50.358Z,32.60
2022-11-30T11:12:30.589Z,31.60
2022-11-30T11:15:26.816Z,32.63
2022-11-30T11:18:01.951Z,32.67
2022-11-30T11:20:30.469Z,33.42
2022-11-30T11:22:57.192Z,32.97
2022-11-30T11:25:37.398Z,35.10
2022-11-30T11:28:14.066Z,33.88
2022-11-30T11:30:42.785Z,34.05
2022-11-30T11:33:12.247Z,34.58
2022-11-30T11:35:42.552Z,34.65
2022-11-30T11:38:28.204Z,36.03
2022-11-30T11:41:01.197Z,35.55
2022-11-30T11:43:34.265Z,36.33
2022-11-30T11:46:13.893Z,33.78
2022-11-30T11:48:48.721Z,35.30
2022-11-30T11:51:36.050Z,35.60
2022-11-30T11:54:15.220Z,39.97
2022-11-30T11:56:41.829Z,35.63
2022-11-30T11:59:14.728Z,38.33
2022-11-30T12:01:47.361Z,38.75
2022-11-30T12:04:28.936Z,37.67
2022-11-30T12:06:58.752Z,39.10
2022-11-30T12:09:34.914Z,39.28
2022-11-30T12:12:01.726Z,37.30
2022-11-30T12:14:35.283Z,37.85
2022-11-30T12:17:16.616Z,34.65
2022-11-30T12:20:06.499Z,36.40
2022-11-30T12:22:48.740Z,39.45
2022-11-30T12:25:28.190Z,54.97
2022-11-30T12:28:01.380Z,41.55
2022-11-30T12:30:52.675Z,46.08
2022-11-30T12:33:25.399Z,44.38
2022-11-30T12:35:54.938Z,39.35
2022-11-30T12:38:30.480Z,42.05
2022-11-30T12:41:12.328Z,47.35
2022-11-30T12:44:04.657Z,38.45
2022-11-30T12:50:01.608Z,40.75
2022-11-30T12:52:35.884Z,40.92
2022-11-30T12:55:05.745Z,40.20
2022-11-30T12:58:00.035Z,44.15
2022-11-30T13:00:34.458Z,41.65
2022-11-30T13:03:26.352Z,38.65
2022-11-30T13:06:00.102Z,41.10
2022-11-30T13:08:38.093Z,45.15
2022-11-30T13:11:17.394Z,44.42
2022-11-30T13:13:50.554Z,42.75
2022-11-30T13:16:21.258Z,43.85
2022-11-30T13:18:49.906Z,45.80
2022-11-30T13:21:21.348Z,44.13
2022-11-30T13:23:47.810Z,52.00
2022-11-30T13:26:29.455Z,46.00
2022-11-30T13:29:20.417Z,57.75
2022-11-30T13:31:56.162Z,56.50
2022-11-30T13:34:29.889Z,49.28
2022-11-30T13:37:10.349Z,47.88
2022-11-30T13:39:54.589Z,51.70
2022-11-30T13:42:36.866Z,50.92
2022-11-30T13:45:12.690Z,50.83
2022-11-30T13:47:43.351Z,65.57
2022-11-30T13:50:38.623Z,52.45
2022-11-30T13:53:17.345Z,53.85
2022-11-30T13:56:08.061Z,76.53
2022-11-30T13:58:35.040Z,56.80
2022-11-30T14:01:21.756Z,65.50
2022-11-30T14:04:23.347Z,56.90
2022-11-30T14:06:51.292Z,61.23
2022-11-30T14:09:40.245Z,63.30
2022-11-30T14:12:34.521Z,58.75
2022-11-30T14:15:02.463Z,60.60
2022-11-30T14:17:35.661Z,62.92
2022-11-30T14:20:15.345Z,69.57
2022-11-30T14:22:45.624Z,64.55
2022-11-30T14:25:15.104Z,63.13
2022-11-30T14:27:46.500Z,63.60
2022-11-30T14:30:16.850Z,66.05
2022-11-30T14:32:51.903Z,67.95
2022-11-30T14:35:23.147Z,68.75
2022-11-30T14:37:58.512Z,71.78
2022-11-30T14:40:29.700Z,86.50
2022-11-30T14:42:59.245Z,84.13
2022-11-30T14:45:27.744Z,78.22
2022-11-30T14:48:11.717Z,70.05
2022-11-30T14:50:44.213Z,72.25
2022-11-30T14:53:38.996Z,72.57
2022-11-30T14:56:24.798Z,74.00
2022-11-30T14:59:02.060Z,73.40
2022-11-30T15:01:31.945Z,69.45
2022-11-30T15:04:14.093Z,79.28
2022-11-30T15:09:16.941Z,80.68
2022-11-30T15:11:46.854Z,74.40
2022-11-30T15:14:13.915Z,73.95
2022-11-30T15:16:55.203Z,74.60
2022-11-30T15:19:26.005Z,72.53
2022-11-30T15:21:53.657Z,73.30
2022-11-30T15:24:21.433Z,77.38
2022-11-30T15:26:56.545Z,87.78
2022-11-30T15:29:33.550Z,72.60
2022-11-30T15:32:03.848Z,73.72
2022-11-30T15:34:40.070Z,88.88
2022-11-30T15:37:07.687Z,89.28
2022-11-30T15:39:34.256Z,73.78
2022-11-30T15:42:02.661Z,71.90
2022-11-30T15:44:44.146Z,89.13
2022-11-30T15:47:26.301Z,76.13
2022-11-30T15:52:26.033Z,73.90
2022-11-30T15:54:58.821Z,64.00
2022-11-30T15:57:46.203Z,77.93
2022-11-30T16:00:15.690Z,78.32
2022-11-30T16:02:42.922Z,75.97
2022-11-30T16:05:14.847Z,70.20
2022-11-30T16:07:48.765Z,83.25
2022-11-30T16:10:35.471Z,75.40
2022-11-30T16:13:02.363Z,77.13
2022-11-30T16:15:35.027Z,74.55
2022-11-30T16:18:07.471Z,76.28
2022-11-30T16:20:34.287Z,73.28
2022-11-30T16:23:05.478Z,76.30
2022-11-30T16:25:32.385Z,71.90
2022-11-30T16:28:02.855Z,69.95
2022-11-30T16:30:30.337Z,72.82
2022-11-30T16:32:57.072Z,74.05
2022-11-30T16:35:30.276Z,73.78
2022-11-30T16:37:56.769Z,79.53
2022-11-30T16:40:23.253Z,71.68
2022-11-30T16:42:53.405Z,76.60
2022-11-30T16:45:23.173Z,74.10
2022-11-30T16:47:54.580Z,77.18
2022-11-30T16:50:23.502Z,73.60
2022-11-30T16:52:51.695Z,77.53
2022-11-30T16:55:22.975Z,59.25
2022-11-30T16:57:49.775Z,67.43
2022-11-30T17:00:19.237Z,67.40
2022-11-30T17:03:09.285Z,66.78
2022-11-30T17:05:37.255Z,67.38
2022-11-30T17:08:04.038Z,67.85
2022-11-30T17:10:30.615Z,67.95
2022-11-30T17:12:57.124Z,69.65
2022-11-30T17:15:24.676Z,65.32
2022-11-30T17:17:51.460Z,65.88
2022-11-30T17:20:18.529Z,67.25
2022-11-30T17:22:45.464Z,71.38
2022-11-30T17:25:16.176Z,67.47
2022-11-30T17:27:44.759Z,69.95
2022-11-30T17:30:13.229Z,67.38
2022-11-30T17:32:39.696Z,63.72
2022-11-30T17:35:06.609Z,70.47
2022-11-30T17:37:33.110Z,69.38
2022-11-30T17:39:59.591Z,70.32
2022-11-30T17:42:26.059Z,69.65
2022-11-30T17:44:52.886Z,68.93
2022-11-30T17:47:19.453Z,67.35
2022-11-30T17:49:45.906Z,69.55
2022-11-30T17:52:15.291Z,66.63
2022-11-30T17:54:42.159Z,68.72
2022-11-30T17:57:08.683Z,67.43
2022-11-30T17:59:38.499Z,69.20
2022-11-30T18:02:05.186Z,68.43
2022-11-30T18:04:34.995Z,66.38
2022-11-30T18:07:01.476Z,67.60
2022-11-30T18:09:27.990Z,65.38
2022-11-30T18:11:54.679Z,64.72
2022-11-30T18:14:21.166Z,66.13
2022-11-30T18:16:47.826Z,69.65
2022-11-30T18:19:15.454Z,63.40
2022-11-30T18:21:48.201Z,68.85
2022-11-30T18:24:14.759Z,68.68
2022-11-30T18:26:44.108Z,67.45
2022-11-30T18:29:11.016Z,65.97
2022-11-30T18:31:37.625Z,67.45
2022-11-30T18:34:06.446Z,68.63
2022-11-30T18:36:33.971Z,69.78
2022-11-30T18:39:00.757Z,68.18
2022-11-30T18:41:30.506Z,65.85
2022-11-30T18:43:57.984Z,64.80
2022-11-30T18:46:27.887Z,67.13
2022-11-30T18:48:54.732Z,68.18
2022-11-30T18:51:24.257Z,68.15
2022-11-30T18:53:57.697Z,67.00
2022-11-30T18:56:28.606Z,66.15
2022-11-30T18:58:57.755Z,66.75
2022-11-30T19:01:28.479Z,67.75
2022-11-30T19:04:00.446Z,64.80
2022-11-30T19:08:57.427Z,66.28
2022-11-30T19:11:24.643Z,66.80
2022-11-30T19:13:58.633Z,65.97
2022-11-30T19:16:26.860Z,63.60
2022-11-30T19:18:54.375Z,66.88
2022-11-30T19:21:22.424Z,70.50
2022-11-30T19:23:49.848Z,65.85
2022-11-30T19:26:16.567Z,67.03
2022-11-30T19:28:46.713Z,69.35
2022-11-30T19:31:16.238Z,66.00
2022-11-30T19:33:45.327Z,70.07
2022-11-30T19:36:20.455Z,67.10
2022-11-30T19:38:47.675Z,64.03
2022-11-30T19:41:15.538Z,65.88
2022-11-30T19:43:47.832Z,66.60
2022-11-30T19:46:22.011Z,63.35
2022-11-30T19:48:48.667Z,70.35
2022-11-30T19:51:18.623Z,66.13
2022-11-30T19:53:46.012Z,62.85
2022-11-30T19:56:17.463Z,64.13
2022-11-30T19:58:45.597Z,62.47
2022-11-30T20:01:17.034Z,61.00
2022-11-30T20:03:44.443Z,60.50
2022-11-30T20:06:14.579Z,61.20
2022-11-30T20:08:41.530Z,61.05
2022-11-30T20:11:09.844Z,61.10
2022-11-30T20:13:36.811Z,60.67
2022-11-30T20:16:13.871Z,59.60
2022-11-30T20:18:45.782Z,60.58
2022-11-30T20:21:24.087Z,59.50
2022-11-30T20:23:51.916Z,56.08
2022-11-30T20:26:21.642Z,57.15
2022-11-30T20:28:49.859Z,57.67
2022-11-30T20:31:19.075Z,56.42
2022-11-30T20:33:45.984Z,57.70
2022-11-30T20:36:13.762Z,56.92
2022-11-30T20:38:40.298Z,55.60
2022-11-30T20:41:11.234Z,57.35
2022-11-30T20:43:38.866Z,54.72
2022-11-30T20:46:26.650Z,57.63
2022-11-30T20:48:55.379Z,55.13
2022-11-30T20:51:31.379Z,54.85
2022-11-30T20:54:05.570Z,53.55
2022-11-30T20:56:33.412Z,55.25
2022-11-30T20:59:08.364Z,56.63
2022-11-30T21:01:35.101Z,51.72
2022-11-30T21:04:01.735Z,53.67
2022-11-30T21:06:29.745Z,55.80
2022-11-30T21:08:56.931Z,51.38
2022-11-30T21:11:23.721Z,52.28
2022-11-30T21:13:54.382Z,55.33
2022-11-30T21:16:27.551Z,54.17
2022-11-30T21:18:58.067Z,54.05
2022-11-30T21:21:26.292Z,54.70
2022-11-30T21:23:53.898Z,52.47
2022-11-30T21:26:21.925Z,53.75
2022-11-30T21:28:52.812Z,54.28
2022-11-30T21:31:20.409Z,53.63
2022-11-30T21:33:52.805Z,52.50
2022-11-30T21:36:20.516Z,51.80
2022-11-30T21:38:47.070Z,52.83
2022-11-30T21:41:14.432Z,51.40
2022-11-30T21:43:41.930Z,52.35
2022-11-30T21:46:14.449Z,52.45
2022-11-30T21:48:46.969Z,50.67
2022-11-30T21:51:22.476Z,52.35
2022-11-30T21:53:51.969Z,52.45
2022-11-30T21:56:24.029Z,55.85
2022-11-30T21:58:54.161Z,52.08
2022-11-30T22:01:24.249Z,53.25
2022-11-30T22:03:56.959Z,55.13
2022-11-30T22:06:25.257Z,53.58
2022-11-30T22:08:52.064Z,53.78
2022-11-30T22:11:22.933Z,53.95
2022-11-30T22:13:51.194Z,56.88
2022-11-30T22:16:18.690Z,54.53
2022-11-30T22:18:46.301Z,54.72
2022-11-30T22:21:18.273Z,57.10
2022-11-30T22:26:19.636Z,50.60
2022-11-30T22:28:49.480Z,53.47
2022-11-30T22:31:18.561Z,53.00
2022-11-30T22:33:46.207Z,52.38
2022-11-30T22:36:15.599Z,57.28
2022-11-30T22:38:47.661Z,52.17
2022-11-30T22:41:16.917Z,54.67
2022-11-30T22:43:48.000Z,57.78
2022-11-30T22:46:20.171Z,55.40
2022-11-30T22:48:47.430Z,57.28
2022-11-30T22:51:19.584Z,57.05
2022-11-30T22:53:47.912Z,61.17
2022-11-30T22:56:23.082Z,60.85
2022-11-30T22:58:53.889Z,64.30
2022-11-30T23:01:26.435Z,63.70
2022-11-30T23:03:56.171Z,67.28
2022-11-30T23:06:24.222Z,71.55
2022-11-30T23:08:52.029Z,70.72
2022-11-30T23:11:25.848Z,71.53
2022-11-30T23:13:52.885Z,75.78
2022-11-30T23:16:20.064Z,78.93
2022-11-30T23:19:00.392Z,75.97
2022-11-30T23:21:30.250Z,76.40
2022-11-30T23:23:58.976Z,77.90
2022-11-30T23:26:34.098Z,83.22
2022-11-30T23:29:23.460Z,79.60
2022-11-30T23:31:50.057Z,83.00
2022-11-30T23:34:22.202Z,75.95
2022-11-30T23:36:49.026Z,83.05
2022-11-30T23:39:17.415Z,85.15
2022-11-30T23:41:44.125Z,81.55
2022-11-30T23:44:11.300Z,86.60
2022-11-30T23:46:37.842Z,83.82
2022-11-30T23:49:08.043Z,82.85
2022-11-30T23:51:34.519Z,82.72
2022-11-30T23:54:01.079Z,82.60
2022-11-30T23:56:27.573Z,83.63
2022-11-30T23:58:54.037Z,77.38
